Extreme high temperature From: 16-07-2018 05:00 Until: 19:00 warning for: Extreme high temperature Level: Yellow info button
suomi:
Hellevaroitus: Lähivuorokauden aikana on odotettavissa tukalaa hellettä.

svenska:
Varning för värmebölja: Under det närmaste dygnet är den svåra hettan att vänta.

english:
Heat wave warning: Warm weather is expected during the coming 24 hours. 


Thunder radar more information blitzortung!


Löydät sääaseman tiedot myös:

European Weather Network

Finland Weather Exchange

Weather Underground

AWEKAS



Weather Underground säähistoriasivu

Päivittäin yhteenveto Tou 13, 2017 Yksiköt:  Englantilaiset    Metriset   Molemmat
« Edellinen Päivä
Seuraava Päivä »
Päivittäin Viikoittain Kuukausittain Vuosittain Mukautettu
  Korkea: Matala: Keskiarvo:
Lämpötila: TemperatureC °F -0.2 °F 6 °F
Kastepiste: DewpointC °F -9.2 °F -2.8 °F
Kosteus: Humidity % 25 % 57 %
Tuulen nopeus: WindSpeedKMH mph 0.0 mph 2.9 mph
Tuulenpuuska: WindSpeedGustKMH mph - -
Tuuli:- - SW
Ilmanpaine: PressurehPa in 1016.8 in -
Sade: 0.0 in    
Historical Graphs
 
 
Taulukkotiedot Tou 13, 2017
Aika Lämpötila Kastepiste Ilmanpaine Tuuli Tuulen nopeus Tuulenpuuska Kosteus Sademäärä (tunneittain)
TemperatureC °F DewpointC °F PressurehPa in Calm     Humidity % HourlyPrecipMM in
00:00 0.7 °F -2.0 °F 1016.8 in Calm     82 % 0.0 in
00:15 0.4 °F -2.1 °F 1016.8 in Calm     83 % 0.0 in
00:30 0.4 °F -1.8 °F 1016.8 in Calm   3.2 mph 85 % 0.0 in
00:45 0.3 °F -2.1 °F 1016.8 in Calm     84 % 0.0 in
01:00 0.2 °F -2.1 °F 1016.8 in Calm     85 % 0.0 in
01:15 0.1 °F -2.0 °F 1016.8 in Calm     86 % 0.0 in
01:30 0.1 °F -2.0 °F 1017.2 in Calm     86 % 0.0 in
01:45 0.0 °F -1.9 °F 1017.2 in Calm     87 % 0.0 in
02:00 -0.1 °F -2.0 °F 1017.2 in Calm     87 % 0.0 in
02:15 -0.1 °F -2.0 °F 1017.2 in Calm     87 % 0.0 in
02:30 -0.2 °F -1.9 °F 1017.2 in Calm     88 % 0.0 in
02:45 -0.2 °F -1.9 °F 1017.2 in Calm     88 % 0.0 in
03:00 -0.2 °F -1.9 °F 1017.2 in Calm     88 % 0.0 in
03:15 -0.1 °F -1.8 °F 1017.2 in Calm     88 % 0.0 in
03:30 0.0 °F -1.8 °F 1017.2 in Calm     88 % 0.0 in
03:45 -0.1 °F -1.9 °F 1017.2 in Calm     88 % 0.0 in
04:00 -0.1 °F -1.7 °F 1017.2 in Calm     89 % 0.0 in
04:15 -0.1 °F -2.0 °F 1017.2 in Calm     87 % 0.0 in
04:30 -0.1 °F -2.0 °F 1016.8 in Calm     87 % 0.0 in
04:45 0.0 °F -1.9 °F 1017.2 in Calm     87 % 0.0 in
05:00 0.0 °F -1.9 °F 1016.8 in Calm     87 % 0.0 in
05:15 0.0 °F -1.9 °F 1016.8 in Calm     87 % 0.0 in
05:30 0.0 °F -1.9 °F 1016.8 in Calm     87 % 0.0 in
05:45 0.1 °F -1.8 °F 1016.8 in Calm     87 % 0.0 in
06:00 0.3 °F -1.4 °F 1016.8 in Calm     88 % 0.0 in
06:15 0.5 °F -1.4 °F 1017.2 in Calm     87 % 0.0 in
06:30 0.7 °F -1.4 °F 1017.2 in Calm     86 % 0.0 in
06:45 1.0 °F -1.1 °F 1016.8 in Calm     86 % 0.0 in
07:00 1.2 °F -0.9 °F 1016.8 in Calm     86 % 0.0 in
07:15 1.7 °F -0.9 °F 1016.8 in Calm     83 % 0.0 in
07:30 2.2 °F -0.8 °F 1016.8 in Calm   1.6 mph 81 % 0.0 in
07:45 2.8 °F -0.9 °F 1016.8 in WNW 1.6 mph 4.8 mph 77 % 0.0 in
08:00 3.4 °F -0.8 °F 1016.8 in SSW 3.2 mph 9.7 mph 74 % 0.0 in
08:15 3.8 °F -0.6 °F 1016.8 in SSW 1.6 mph 8.0 mph 73 % 0.0 in
08:30 4.3 °F -0.3 °F 1017.2 in Calm   4.8 mph 72 % 0.0 in
08:45 4.6 °F -0.1 °F 1017.2 in SSE 1.6 mph 9.7 mph 72 % 0.0 in
09:00 4.9 °F -0.1 °F 1017.2 in South 1.6 mph 6.4 mph 70 % 0.0 in
09:15 5.3 °F 0.3 °F 1017.2 in South 1.6 mph 8.0 mph 70 % 0.0 in
09:30 5.9 °F 0.4 °F 1016.8 in South 1.6 mph 8.0 mph 68 % 0.0 in
09:45 6.3 °F 0.6 °F 1016.8 in South 3.2 mph 9.7 mph 67 % 0.0 in
10:00 7.2 °F 0.9 °F 1016.8 in SSW 3.2 mph 11.3 mph 64 % 0.0 in
10:15 8.2 °F 0.9 °F 1017.2 in WSW 3.2 mph 9.7 mph 60 % 0.0 in
10:30 8.8 °F 1.0 °F 1017.2 in SW 3.2 mph 9.7 mph 58 % 0.0 in
10:45 9.3 °F 0.9 °F 1017.2 in West 1.6 mph 8.0 mph 56 % 0.0 in
11:00 9.7 °F 1.1 °F 1017.2 in SW 4.8 mph 12.9 mph 55 % 0.0 in
11:15 9.7 °F 1.1 °F 1017.2 in SSW 6.4 mph 16.1 mph 55 % 0.0 in
11:30 10.6 °F 1.2 °F 1016.8 in SW 6.4 mph 14.5 mph 52 % 0.0 in
11:45 10.9 °F 1.2 °F 1016.8 in SSW 6.4 mph 19.3 mph 51 % 0.0 in
12:00 11.2 °F 1.4 °F 1017.2 in SSW 8.0 mph 17.7 mph 51 % 0.0 in
12:15 11.6 °F 0.9 °F 1017.2 in SW 6.4 mph 19.3 mph 48 % 0.0 in
12:30 11.1 °F 0.7 °F 1017.2 in SSW 9.7 mph 25.7 mph 49 % 0.0 in
12:45 10.8 °F 1.3 °F 1017.2 in SW 4.8 mph 12.9 mph 52 % 0.0 in
13:15 10.6 °F -0.2 °F 1017.2 in SSW 9.7 mph 20.9 mph 47 % 0.0 in
13:30 10.6 °F -0.6 °F 1017.5 in SSW 8.0 mph 22.5 mph 46 % 0.0 in
13:45 10.4 °F -1.4 °F 1017.5 in SSW 8.0 mph 25.7 mph 44 % 0.0 in
14:00 10.8 °F -1.6 °F 1017.5 in SSW 9.7 mph 20.9 mph 42 % 0.0 in
14:15 10.9 °F -2.5 °F 1017.8 in SSW 11.3 mph 30.6 mph 39 % 0.0 in
14:30 10.3 °F -3.1 °F 1017.8 in SSW 9.7 mph 29.0 mph 39 % 0.0 in
14:45 10.5 °F -4.3 °F 1017.8 in SSW 12.9 mph 29.0 mph 35 % 0.0 in
15:00 10.3 °F -4.2 °F 1018.2 in SSW 9.7 mph 24.1 mph 36 % 0.0 in
15:15 11.2 °F -3.0 °F 1018.2 in SW 6.4 mph 22.5 mph 37 % 0.0 in
15:30 11.1 °F -3.1 °F 1018.2 in SSW 9.7 mph 20.9 mph 37 % 0.0 in
15:45 11.1 °F -3.8 °F 1018.2 in West 8.0 mph 20.9 mph 35 % 0.0 in
16:00 11.8 °F -3.6 °F 1018.2 in WSW 6.4 mph 14.5 mph 34 % 0.0 in
16:15 11.6 °F -3.0 °F 1018.2 in WSW 6.4 mph 22.5 mph 36 % 0.0 in
16:30 11.8 °F -2.8 °F 1018.2 in West 6.4 mph 17.7 mph 36 % 0.0 in
16:45 11.7 °F -4.0 °F 1018.2 in SW 4.8 mph 14.5 mph 33 % 0.0 in
17:00 11.8 °F -3.9 °F 1018.2 in SW 4.8 mph 17.7 mph 33 % 0.0 in
17:15 11.8 °F -3.9 °F 1018.2 in West 6.4 mph 17.7 mph 33 % 0.0 in
17:30 11.6 °F -3.7 °F 1018.2 in West 4.8 mph 14.5 mph 34 % 0.0 in
17:45 11.8 °F -4.8 °F 1018.5 in SSW 4.8 mph 12.9 mph 31 % 0.0 in
18:00 11.4 °F -5.2 °F 1018.2 in SSW 6.4 mph 12.9 mph 31 % 0.0 in
18:15 11.1 °F -6.3 °F 1018.5 in SSW 6.4 mph 22.5 mph 29 % 0.0 in
18:30 11.1 °F -6.8 °F 1018.5 in SSW 6.4 mph 16.1 mph 28 % 0.0 in
18:45 10.8 °F -7.5 °F 1018.5 in SSW 8.0 mph 20.9 mph 27 % 0.0 in
19:00 10.8 °F -7.9 °F 1018.5 in SW 4.8 mph 11.3 mph 26 % 0.0 in
19:15 10.6 °F -7.6 °F 1018.5 in SW 4.8 mph 14.5 mph 27 % 0.0 in
19:30 9.9 °F -9.2 °F 1018.5 in SSW 4.8 mph 16.1 mph 25 % 0.0 in
19:45 9.7 °F -8.9 °F 1018.5 in SW 3.2 mph 9.7 mph 26 % 0.0 in
20:00 9.3 °F -8.8 °F 1018.5 in SSW 3.2 mph 12.9 mph 27 % 0.0 in
20:15 8.9 °F -7.8 °F 1018.5 in Calm   6.4 mph 30 % 0.0 in
20:30 8.7 °F -7.5 °F 1018.5 in Calm   4.8 mph 31 % 0.0 in
20:45 8.7 °F -7.1 °F 1018.5 in Calm   4.8 mph 32 % 0.0 in
21:00 8.8 °F -7.9 °F 1018.5 in SSW 1.6 mph 6.4 mph 30 % 0.0 in
21:15 8.9 °F -9.1 °F 1018.8 in SSW 1.6 mph 8.0 mph 27 % 0.0 in
21:30 8.9 °F -9.1 °F 1018.8 in SSW 1.6 mph 6.4 mph 27 % 0.0 in
21:45 8.6 °F -8.0 °F 1018.8 in Calm   3.2 mph 30 % 0.0 in
22:00 8.1 °F -7.2 °F 1018.8 in Calm     33 % 0.0 in
22:15 7.4 °F -7.1 °F 1019.2 in Calm     35 % 0.0 in
22:30 6.7 °F -5.3 °F 1019.2 in Calm     42 % 0.0 in
22:45 5.7 °F -4.5 °F 1019.2 in Calm     48 % 0.0 in
23:00 4.5 °F -4.5 °F 1019.2 in Calm     52 % 0.0 in
23:15 3.4 °F -5.0 °F 1019.2 in Calm     54 % 0.0 in
23:30 2.6 °F -5.1 °F 1019.2 in Calm     57 % 0.0 in
23:45 2.1 °F -5.8 °F 1019.2 in Calm     56 % 0.0 in
Esan sääasema
Terveisin Weather Underground - 2.75 mb

Alkuperäinen skripti  Jim McMurry - jmcmurry@mwt.net Sovitettu myös templatelle  Wim van der Kuil - Leuven-Template.eu

Laitteet joita käytämme:

Sääasema
Davis VP2

Sääasemaohjelma
Cumulus

Sääaseman tietokone
Asus EeePC

Palveluntarjoaja
Suncomet

Davis VP2

Cumulus

Asus EeePC

Suncomet